Aviation Digital Data Service (ADDS)

Output produced by METARs form (0524 UTC 24 January 2019)
found at http://www.aviationweather.gov/metar/data/
 
METAR text: VTCT 240500Z 09004KT 9999 FEW030 24/15 Q1018 NOSIG
Conditions at: VTCT (CHIANG RAI INTL , TH) observed 0500 UTC 24 January 2019
Temperature: 24.0°C (75°F)
Dewpoint: 15.0°C (59°F) [RH = 57%]
Pressure (altimeter): 30.06 inches Hg (1018.0 mb)
Winds: from the E (90 degrees) at 5 MPH (4 knots; 2.1 m/s)
Visibility: 6 or more miles (10+ km)
Ceiling: at least 12,000 feet AGL
Clouds: few clouds at 3000 feet AGL
Weather: no significant weather observed at this time

METAR text: VTCT 240400Z 11004KT 9999 FEW030 22/16 Q1019 NOSIG
Conditions at: VTCT (CHIANG RAI INTL , TH) observed 0400 UTC 24 January 2019
Temperature: 22.0°C (72°F)
Dewpoint: 16.0°C (61°F) [RH = 69%]
Pressure (altimeter): 30.09 inches Hg (1019.0 mb)
Winds: from the ESE (110 degrees) at 5 MPH (4 knots; 2.1 m/s)
Visibility: 6 or more miles (10+ km)
Ceiling: at least 12,000 feet AGL
Clouds: few clouds at 3000 feet AGL
Weather: no significant weather observed at this time

METAR text: VTCT 240300Z 12003KT CAVOK 20/15 Q1019 NOSIG
Conditions at: VTCT (CHIANG RAI INTL , TH) observed 0300 UTC 24 January 2019
Temperature: 20.0°C (68°F)
Dewpoint: 15.0°C (59°F) [RH = 73%]
Pressure (altimeter): 30.09 inches Hg (1019.0 mb)
Winds: from the ESE (120 degrees) at 3 MPH (3 knots; 1.5 m/s)
Visibility: 6 or more miles (10+ km)
Ceiling: ceiling and visibility are OK
Clouds: unknown
Weather: no significant weather observed at this time

METAR text: VTCT 240200Z 04004KT CAVOK 18/15 Q1019 NOSIG
Conditions at: VTCT (CHIANG RAI INTL , TH) observed 0200 UTC 24 January 2019
Temperature: 18.0°C (64°F)
Dewpoint: 15.0°C (59°F) [RH = 83%]
Pressure (altimeter): 30.09 inches Hg (1019.0 mb)
Winds: from the NE (40 degrees) at 5 MPH (4 knots; 2.1 m/s)
Visibility: 6 or more miles (10+ km)
Ceiling: ceiling and visibility are OK
Clouds: unknown
Weather: no significant weather observed at this time

METAR text: VTCT 240100Z 00000KT 7000 NSC 16/16 Q1018 NOSIG
Conditions at: VTCT (CHIANG RAI INTL , TH) observed 0100 UTC 24 January 2019
Temperature: 16.0°C (61°F)
Dewpoint: 16.0°C (61°F) [RH = 100%]
Pressure (altimeter): 30.06 inches Hg (1018.0 mb)
Winds: calm
Visibility: 4 miles ( 7 km)
Ceiling: at least 12,000 feet AGL
Clouds: sky clear below 12,000 feet AGL
Weather: no significant weather observed at this time

METAR text: VTCT 240000Z 00000KT 4000 BCFG NSC 14/14 Q1017 NOSIG
Conditions at: VTCT (CHIANG RAI INTL , TH) observed 0000 UTC 24 January 2019
Temperature: 14.0°C (57°F)
Dewpoint: 14.0°C (57°F) [RH = 100%]
Pressure (altimeter): 30.03 inches Hg (1017.0 mb)
Winds: calm
Visibility: 2.49 miles (4.01 km)
Ceiling: at least 12,000 feet AGL
Clouds: sky clear below 12,000 feet AGL
Weather: BCFG  (patches of fog)

METAR text: VTCT 232300Z 00000KT 6000 NSC 15/15 Q1016 NOSIG
Conditions at: VTCT (CHIANG RAI INTL , TH) observed 2300 UTC 23 January 2019
Temperature: 15.0°C (59°F)
Dewpoint: 15.0°C (59°F) [RH = 100%]
Pressure (altimeter): 30.00 inches Hg (1016.0 mb)
Winds: calm
Visibility: 4 miles ( 6 km)
Ceiling: at least 12,000 feet AGL
Clouds: sky clear below 12,000 feet AGL
Weather: no significant weather observed at this time

METAR text: VTCT 232200Z 00000KT 4000 BCFG FEW012 16/16 Q1016 NOSIG
Conditions at: VTCT (CHIANG RAI INTL , TH) observed 2200 UTC 23 January 2019
Temperature: 16.0°C (61°F)
Dewpoint: 16.0°C (61°F) [RH = 100%]
Pressure (altimeter): 30.00 inches Hg (1016.0 mb)
Winds: calm
Visibility: 2.49 miles (4.01 km)
Ceiling: at least 12,000 feet AGL
Clouds: few clouds at 1200 feet AGL
Weather: BCFG  (patches of fog)

METAR text: VTCT 232100Z 00000KT 5000 BCFG NSC 16/16 Q1015 NOSIG
Conditions at: VTCT (CHIANG RAI INTL , TH) observed 2100 UTC 23 January 2019
Temperature: 16.0°C (61°F)
Dewpoint: 16.0°C (61°F) [RH = 100%]
Pressure (altimeter): 29.97 inches Hg (1015.0 mb)
Winds: calm
Visibility: 3 miles ( 5 km)
Ceiling: at least 12,000 feet AGL
Clouds: sky clear below 12,000 feet AGL
Weather: BCFG  (patches of fog)

METAR text: VTCT 232000Z 00000KT 6000 NSC 17/17 Q1015 NOSIG
Conditions at: VTCT (CHIANG RAI INTL , TH) observed 2000 UTC 23 January 2019
Temperature: 17.0°C (63°F)
Dewpoint: 17.0°C (63°F) [RH = 100%]
Pressure (altimeter): 29.97 inches Hg (1015.0 mb)
Winds: calm
Visibility: 4 miles ( 6 km)
Ceiling: at least 12,000 feet AGL
Clouds: sky clear below 12,000 feet AGL
Weather: no significant weather observed at this time

METAR text: VTCT 231900Z 29002KT 6000 NSC 17/17 Q1015 NOSIG
Conditions at: VTCT (CHIANG RAI INTL , TH) observed 1900 UTC 23 January 2019
Temperature: 17.0°C (63°F)
Dewpoint: 17.0°C (63°F) [RH = 100%]
Pressure (altimeter): 29.97 inches Hg (1015.0 mb)
Winds: from the WNW (290 degrees) at 2 MPH (2 knots; 1.0 m/s)
Visibility: 4 miles ( 6 km)
Ceiling: at least 12,000 feet AGL
Clouds: sky clear below 12,000 feet AGL
Weather: no significant weather observed at this time

METAR text: VTCT 231800Z 00000KT 8000 NSC 18/18 Q1016 NOSIG
Conditions at: VTCT (CHIANG RAI INTL , TH) observed 1800 UTC 23 January 2019
Temperature: 18.0°C (64°F)
Dewpoint: 18.0°C (64°F) [RH = 100%]
Pressure (altimeter): 30.00 inches Hg (1016.0 mb)
Winds: calm
Visibility: 5 miles ( 8 km)
Ceiling: at least 12,000 feet AGL
Clouds: sky clear below 12,000 feet AGL
Weather: no significant weather observed at this time

METAR text: VTCT 231700Z 00000KT CAVOK 18/18 Q1016 NOSIG
Conditions at: VTCT (CHIANG RAI INTL , TH) observed 1700 UTC 23 January 2019
Temperature: 18.0°C (64°F)
Dewpoint: 18.0°C (64°F) [RH = 100%]
Pressure (altimeter): 30.00 inches Hg (1016.0 mb)
Winds: calm
Visibility: 6 or more miles (10+ km)
Ceiling: ceiling and visibility are OK
Clouds: unknown
Weather: no significant weather observed at this time

METAR text: VTCT 231600Z 00000KT CAVOK 20/18 Q1016 NOSIG
Conditions at: VTCT (CHIANG RAI INTL , TH) observed 1600 UTC 23 January 2019
Temperature: 20.0°C (68°F)
Dewpoint: 18.0°C (64°F) [RH = 88%]
Pressure (altimeter): 30.00 inches Hg (1016.0 mb)
Winds: calm
Visibility: 6 or more miles (10+ km)
Ceiling: ceiling and visibility are OK
Clouds: unknown
Weather: no significant weather observed at this time

METAR text: VTCT 231500Z 00000KT CAVOK 19/18 Q1016 NOSIG
Conditions at: VTCT (CHIANG RAI INTL , TH) observed 1500 UTC 23 January 2019
Temperature: 19.0°C (66°F)
Dewpoint: 18.0°C (64°F) [RH = 94%]
Pressure (altimeter): 30.00 inches Hg (1016.0 mb)
Winds: calm
Visibility: 6 or more miles (10+ km)
Ceiling: ceiling and visibility are OK
Clouds: unknown
Weather: no significant weather observed at this time

METAR text: VTCT 231400Z 28002KT CAVOK 20/19 Q1015 NOSIG
Conditions at: VTCT (CHIANG RAI INTL , TH) observed 1400 UTC 23 January 2019
Temperature: 20.0°C (68°F)
Dewpoint: 19.0°C (66°F) [RH = 94%]
Pressure (altimeter): 29.97 inches Hg (1015.0 mb)
Winds: from the W (280 degrees) at 2 MPH (2 knots; 1.0 m/s)
Visibility: 6 or more miles (10+ km)
Ceiling: ceiling and visibility are OK
Clouds: unknown
Weather: no significant weather observed at this time

METAR text: VTCT 231300Z 00000KT CAVOK 21/19 Q1015 NOSIG
Conditions at: VTCT (CHIANG RAI INTL , TH) observed 1300 UTC 23 January 2019
Temperature: 21.0°C (70°F)
Dewpoint: 19.0°C (66°F) [RH = 88%]
Pressure (altimeter): 29.97 inches Hg (1015.0 mb)
Winds: calm
Visibility: 6 or more miles (10+ km)
Ceiling: ceiling and visibility are OK
Clouds: unknown
Weather: no significant weather observed at this time

METAR text: VTCT 231200Z 35004KT CAVOK 22/19 Q1014 NOSIG
Conditions at: VTCT (CHIANG RAI INTL , TH) observed 1200 UTC 23 January 2019
Temperature: 22.0°C (72°F)
Dewpoint: 19.0°C (66°F) [RH = 83%]
Pressure (altimeter): 29.94 inches Hg (1014.0 mb)
Winds: from the N (350 degrees) at 5 MPH (4 knots; 2.1 m/s)
Visibility: 6 or more miles (10+ km)
Ceiling: ceiling and visibility are OK
Clouds: unknown
Weather: no significant weather observed at this time

METAR text: VTCT 231100Z 00000KT 9999 FEW030 26/18 Q1014 NOSIG
Conditions at: VTCT (CHIANG RAI INTL , TH) observed 1100 UTC 23 January 2019
Temperature: 26.0°C (79°F)
Dewpoint: 18.0°C (64°F) [RH = 61%]
Pressure (altimeter): 29.94 inches Hg (1014.0 mb)
Winds: calm
Visibility: 6 or more miles (10+ km)
Ceiling: at least 12,000 feet AGL
Clouds: few clouds at 3000 feet AGL
Weather: no significant weather observed at this time

METAR text: VTCT 231000Z 16004KT 9999 FEW030 28/18 Q1013 NOSIG
Conditions at: VTCT (CHIANG RAI INTL , TH) observed 1000 UTC 23 January 2019
Temperature: 28.0°C (82°F)
Dewpoint: 18.0°C (64°F) [RH = 55%]
Pressure (altimeter): 29.91 inches Hg (1013.0 mb)
Winds: from the SSE (160 degrees) at 5 MPH (4 knots; 2.1 m/s)
Visibility: 6 or more miles (10+ km)
Ceiling: at least 12,000 feet AGL
Clouds: few clouds at 3000 feet AGL
Weather: no significant weather observed at this time

METAR text: VTCT 230900Z 15004KT 9999 FEW028 28/18 Q1013 NOSIG
Conditions at: VTCT (CHIANG RAI INTL , TH) observed 0900 UTC 23 January 2019
Temperature: 28.0°C (82°F)
Dewpoint: 18.0°C (64°F) [RH = 55%]
Pressure (altimeter): 29.91 inches Hg (1013.0 mb)
Winds: from the SSE (150 degrees) at 5 MPH (4 knots; 2.1 m/s)
Visibility: 6 or more miles (10+ km)
Ceiling: at least 12,000 feet AGL
Clouds: few clouds at 2800 feet AGL
Weather: no significant weather observed at this time

METAR text: VTCT 230800Z 17005KT 9999 FEW025 28/18 Q1014 NOSIG
Conditions at: VTCT (CHIANG RAI INTL , TH) observed 0800 UTC 23 January 2019
Temperature: 28.0°C (82°F)
Dewpoint: 18.0°C (64°F) [RH = 55%]
Pressure (altimeter): 29.94 inches Hg (1014.0 mb)
Winds: from the S (170 degrees) at 6 MPH (5 knots; 2.6 m/s)
Visibility: 6 or more miles (10+ km)
Ceiling: at least 12,000 feet AGL
Clouds: few clouds at 2500 feet AGL
Weather: no significant weather observed at this time

METAR text: VTCT 230700Z 15006KT 9999 FEW025 27/19 Q1015 NOSIG
Conditions at: VTCT (CHIANG RAI INTL , TH) observed 0700 UTC 23 January 2019
Temperature: 27.0°C (81°F)
Dewpoint: 19.0°C (66°F) [RH = 62%]
Pressure (altimeter): 29.97 inches Hg (1015.0 mb)
Winds: from the SSE (150 degrees) at 7 MPH (6 knots; 3.1 m/s)
Visibility: 6 or more miles (10+ km)
Ceiling: at least 12,000 feet AGL
Clouds: few clouds at 2500 feet AGL
Weather: no significant weather observed at this time

METAR text: VTCT 230600Z 17004KT 9999 FEW025 27/20 Q1016 NOSIG
Conditions at: VTCT (CHIANG RAI INTL , TH) observed 0600 UTC 23 January 2019
Temperature: 27.0°C (81°F)
Dewpoint: 20.0°C (68°F) [RH = 66%]
Pressure (altimeter): 30.00 inches Hg (1016.0 mb)
Winds: from the S (170 degrees) at 5 MPH (4 knots; 2.1 m/s)
Visibility: 6 or more miles (10+ km)
Ceiling: at least 12,000 feet AGL
Clouds: few clouds at 2500 feet AGL
Weather: no significant weather observed at this time

METAR text: VTCT 230500Z 19004KT 9999 FEW030 26/20 Q1017 NOSIG
Conditions at: VTCT (CHIANG RAI INTL , TH) observed 0500 UTC 23 January 2019
Temperature: 26.0°C (79°F)
Dewpoint: 20.0°C (68°F) [RH = 70%]
Pressure (altimeter): 30.03 inches Hg (1017.0 mb)
Winds: from the S (190 degrees) at 5 MPH (4 knots; 2.1 m/s)
Visibility: 6 or more miles (10+ km)
Ceiling: at least 12,000 feet AGL
Clouds: few clouds at 3000 feet AGL
Weather: no significant weather observed at this time

METAR text: VTCT 230400Z 06004KT 9999 FEW030 23/19 Q1018 NOSIG
Conditions at: VTCT (CHIANG RAI INTL , TH) observed 0400 UTC 23 January 2019
Temperature: 23.0°C (73°F)
Dewpoint: 19.0°C (66°F) [RH = 78%]
Pressure (altimeter): 30.06 inches Hg (1018.0 mb)
Winds: from the ENE (60 degrees) at 5 MPH (4 knots; 2.1 m/s)
Visibility: 6 or more miles (10+ km)
Ceiling: at least 12,000 feet AGL
Clouds: few clouds at 3000 feet AGL
Weather: no significant weather observed at this time

METAR text: VTCT 230300Z VRB02KT 6000 FEW020 21/20 Q1019 NOSIG
Conditions at: VTCT (CHIANG RAI INTL , TH) observed 0300 UTC 23 January 2019
Temperature: 21.0°C (70°F)
Dewpoint: 20.0°C (68°F) [RH = 94%]
Pressure (altimeter): 30.09 inches Hg (1019.0 mb)
Winds: variable direction winds at 2 MPH (2 knots; 1.0 m/s)
Visibility: 4 miles ( 6 km)
Ceiling: at least 12,000 feet AGL
Clouds: few clouds at 2000 feet AGL
Weather: no significant weather observed at this time

METAR text: VTCT 230200Z VRB02KT 3000 BR BKN003 18/18 Q1019 BECMG TL0300 6000
Conditions at: VTCT (CHIANG RAI INTL , TH) observed 0200 UTC 23 January 2019
Temperature: 18.0°C (64°F)
Dewpoint: 18.0°C (64°F) [RH = 100%]
Pressure (altimeter): 30.09 inches Hg (1019.0 mb)
Winds: variable direction winds at 2 MPH (2 knots; 1.0 m/s)
Visibility: 1.86 miles (2.99 km)
Ceiling: 300 feet AGL
Clouds: broken clouds at 300 feet AGL
Weather: BR  (mist)

METAR text: VTCT 230130Z 00000KT 1500 R03/0800U BR SCT003 18/18 Q1018 BECMG TL0200 6000
Conditions at: VTCT (CHIANG RAI INTL , TH) observed 0130 UTC 23 January 2019
Temperature: 18.0°C (64°F)
Dewpoint: 18.0°C (64°F) [RH = 100%]
Pressure (altimeter): 30.06 inches Hg (1018.0 mb)
Winds: calm
Visibility: 0.93 miles (1.50 km)
Ceiling: at least 12,000 feet AGL
Clouds: scattered clouds at 300 feet AGL
Weather: BR  (mist)

METAR text: VTCT 230100Z 00000KT 0350 R03/0225N FG VV002 17/17 Q1018 BECMG TL0200 1500 BR
Conditions at: VTCT (CHIANG RAI INTL , TH) observed 0100 UTC 23 January 2019
Temperature: 17.0°C (63°F)
Dewpoint: 17.0°C (63°F) [RH = 100%]
Pressure (altimeter): 30.06 inches Hg (1018.0 mb)
Winds: calm
Visibility: 0.22 miles (0.35 km)
Ceiling: indefinite ceiling with vertical visibility of 200 feet AGL
Clouds: obscured sky
Weather: FG  (fog)

METAR text: VTCT 230000Z 00000KT 0250 R03/0400N FG VV002 17/17 Q1017 BECMG TL0100 0800 FG
Conditions at: VTCT (CHIANG RAI INTL , TH) observed 0000 UTC 23 January 2019
Temperature: 17.0°C (63°F)
Dewpoint: 17.0°C (63°F) [RH = 100%]
Pressure (altimeter): 30.03 inches Hg (1017.0 mb)
Winds: calm
Visibility: 0.16 miles (0.26 km)
Ceiling: indefinite ceiling with vertical visibility of 200 feet AGL
Clouds: obscured sky
Weather: FG  (fog)

METAR text: VTCT 222300Z 35001KT 0250 R03/0350N FG VV002 17/17 Q1017 BECMG TL0000 0800 FG
Conditions at: VTCT (CHIANG RAI INTL , TH) observed 2300 UTC 22 January 2019
Temperature: 17.0°C (63°F)
Dewpoint: 17.0°C (63°F) [RH = 100%]
Pressure (altimeter): 30.03 inches Hg (1017.0 mb)
Winds: from the N (350 degrees) at 1 MPH (1 knots; 0.5 m/s)
Visibility: 0.16 miles (0.26 km)
Ceiling: indefinite ceiling with vertical visibility of 200 feet AGL
Clouds: obscured sky
Weather: FG  (fog)

METAR text: VTCT 222200Z 00000KT 0500 R03/0700N FG SCT004 17/17 Q1016 BECMG TL2300 0800 FG
Conditions at: VTCT (CHIANG RAI INTL , TH) observed 2200 UTC 22 January 2019
Temperature: 17.0°C (63°F)
Dewpoint: 17.0°C (63°F) [RH = 100%]
Pressure (altimeter): 30.00 inches Hg (1016.0 mb)
Winds: calm
Visibility: 0.31 miles (0.50 km)
Ceiling: at least 12,000 feet AGL
Clouds: scattered clouds at 400 feet AGL
Weather: FG  (fog)

METAR text: VTCT 222100Z 00000KT 0550 R03/0900N BCFG FEW018 17/17 Q1016 BECMG TL2130 0800 FG
Conditions at: VTCT (CHIANG RAI INTL , TH) observed 2100 UTC 22 January 2019
Temperature: 17.0°C (63°F)
Dewpoint: 17.0°C (63°F) [RH = 100%]
Pressure (altimeter): 30.00 inches Hg (1016.0 mb)
Winds: calm
Visibility: 0.34 miles (0.55 km)
Ceiling: at least 12,000 feet AGL
Clouds: few clouds at 1800 feet AGL
Weather: BCFG  (patches of fog)

METAR text: VTCT 222000Z 28002KT 6000 NSC 18/18 Q1016 NOSIG
Conditions at: VTCT (CHIANG RAI INTL , TH) observed 2000 UTC 22 January 2019
Temperature: 18.0°C (64°F)
Dewpoint: 18.0°C (64°F) [RH = 100%]
Pressure (altimeter): 30.00 inches Hg (1016.0 mb)
Winds: from the W (280 degrees) at 2 MPH (2 knots; 1.0 m/s)
Visibility: 4 miles ( 6 km)
Ceiling: at least 12,000 feet AGL
Clouds: sky clear below 12,000 feet AGL
Weather: no significant weather observed at this time

METAR text: VTCT 221900Z 27003KT 6000 NSC 18/18 Q1016 NOSIG
Conditions at: VTCT (CHIANG RAI INTL , TH) observed 1900 UTC 22 January 2019
Temperature: 18.0°C (64°F)
Dewpoint: 18.0°C (64°F) [RH = 100%]
Pressure (altimeter): 30.00 inches Hg (1016.0 mb)
Winds: from the W (270 degrees) at 3 MPH (3 knots; 1.5 m/s)
Visibility: 4 miles ( 6 km)
Ceiling: at least 12,000 feet AGL
Clouds: sky clear below 12,000 feet AGL
Weather: no significant weather observed at this time

METAR text: VTCT 221800Z 00000KT 6000 NSC 19/19 Q1016 NOSIG
Conditions at: VTCT (CHIANG RAI INTL , TH) observed 1800 UTC 22 January 2019
Temperature: 19.0°C (66°F)
Dewpoint: 19.0°C (66°F) [RH = 100%]
Pressure (altimeter): 30.00 inches Hg (1016.0 mb)
Winds: calm
Visibility: 4 miles ( 6 km)
Ceiling: at least 12,000 feet AGL
Clouds: sky clear below 12,000 feet AGL
Weather: no significant weather observed at this time

Forecast for: VTCT (CHIANG RAI INTL , TH)
Text: TAF VTCT 232300Z 2400/2506 17005KT 0800 FG FEW030
Forecast period: 0000 to 0100 UTC 24 January 2019
Forecast type: FROM: standard forecast or significant change
Winds: from the S (170 degrees) at 6 MPH (5 knots; 2.6 m/s)
Visibility: 0.50 miles (0.80 km)
Ceiling: at least 12,000 feet AGL
Clouds: few clouds at 3000 feet AGL
Weather: FG  (fog)
Text: BECMG 2401/2403 9999 NSW
Forecast period: 0100 UTC 24 January 2019 to 0600 UTC 25 January 2019
Forecast type: BECOMING: Conditions expected to become as follows by 0300 UTC 24 January 2019
Winds: from the S (170 degrees) at 6 MPH (5 knots; 2.6 m/s)
Visibility: 6 or more miles 10+ km)
Ceiling: at least 12,000 feet AGL
Clouds: few clouds at 3000 feet AGL
Weather: NSW  (no significant weather)